Time;durP1;ratioP1;P1;durP2;ratioP2;P2;SDS_P1;SDS_P2;PMS_P1;PMS_P2;Temp;Humidity;BMP_temperature;BMP_pressure;BME280_temperature;BME280_humidity;BME280_pressure;Samples;Min_cycle;Max_cycle;Signal;HPM_P1;HPM_P2
2022/06/06 00:01:41;;;;;;;13.07;3.70;;;28.70;74.90;;;;;;5017859;28;20060;-79
2022/06/06 00:04:08;;;;;;;14.07;3.80;;;28.70;75.10;;;;;;5034102;28;20573;-78
2022/06/06 00:06:36;;;;;;;7.75;3.78;;;28.60;74.90;;;;;;5033666;28;20060;-78
2022/06/06 00:09:04;;;;;;;12.90;3.95;;;28.60;74.90;;;;;;5033725;28;20136;-79
2022/06/06 00:11:33;;;;;;;10.88;4.10;;;28.60;75.00;;;;;;5033887;28;20152;-78
2022/06/06 00:14:01;;;;;;;9.10;3.85;;;28.60;75.10;;;;;;5033854;28;20071;-78
2022/06/06 00:16:29;;;;;;;21.25;3.80;;;28.60;75.00;;;;;;5033925;28;20045;-79
2022/06/06 00:18:57;;;;;;;11.38;5.03;;;28.60;75.40;;;;;;5034071;28;20033;-78
2022/06/06 00:21:24;;;;;;;12.52;4.53;;;28.60;75.50;;;;;;5034610;28;21054;-78
2022/06/06 00:23:53;;;;;;;13.55;4.97;;;28.60;75.50;;;;;;5053669;28;20429;-78
2022/06/06 00:26:20;;;;;;;11.30;5.00;;;28.70;75.60;;;;;;5071336;28;20123;-77
2022/06/06 00:28:49;;;;;;;8.52;4.10;;;28.70;75.60;;;;;;5053042;28;20060;-77
2022/06/06 00:36:50;;;;;;;9.55;3.85;;;28.70;75.50;;;;;;5069602;28;20048;-77
2022/06/06 00:39:18;;;;;;;10.05;5.00;;;28.70;75.30;;;;;;5069876;28;20581;-80
2022/06/06 00:41:49;;;;;;;9.82;4.38;;;28.70;75.10;;;;;;5036853;28;20131;-77
2022/06/06 00:44:23;;;;;;;15.23;5.20;;;28.70;75.30;;;;;;5053332;28;20079;-77
2022/06/06 00:47:00;;;;;;;10.45;5.25;;;28.70;75.50;;;;;;5053193;28;20406;-77
2022/06/06 00:49:44;;;;;;;15.50;4.43;;;28.70;75.20;;;;;;5053370;28;20051;-77
2022/06/06 00:52:26;;;;;;;14.23;5.50;;;28.60;75.00;;;;;;5053087;28;20456;-77
2022/06/06 00:54:58;;;;;;;8.75;4.60;;;28.60;74.80;;;;;;5053301;28;20049;-77
2022/06/06 00:57:31;;;;;;;13.27;6.25;;;28.60;74.80;;;;;;5053019;28;20044;-77
2022/06/06 01:00:09;;;;;;;13.15;6.28;;;28.60;74.80;;;;;;5052781;28;20051;-77
2022/06/06 01:02:37;;;;;;;16.05;5.22;;;28.60;74.80;;;;;;5036592;28;20055;-77
2022/06/06 01:05:05;;;;;;;18.42;5.32;;;28.60;74.90;;;;;;5053510;28;20506;-77
2022/06/06 01:07:33;;;;;;;9.88;4.80;;;28.60;75.00;;;;;;5036092;28;20072;-77
2022/06/06 01:10:01;;;;;;;15.25;6.70;;;28.60;74.90;;;;;;5050408;28;20044;-79
2022/06/06 01:12:32;;;;;;;10.43;6.07;;;28.60;74.90;;;;;;5035857;28;20144;-77
2022/06/06 01:15:07;;;;;;;14.68;6.00;;;28.60;75.00;;;;;;5051653;28;20501;-77
2022/06/06 01:17:40;;;;;;;13.40;7.05;;;28.50;75.00;;;;;;5035939;28;20044;-77
2022/06/06 01:20:21;;;;;;;16.58;7.93;;;28.50;75.20;;;;;;5035902;28;20056;-77
2022/06/06 01:23:14;;;;;;;15.23;6.65;;;28.50;75.40;;;;;;5068636;28;20569;-77
2022/06/06 01:25:58;;;;;;;10.82;5.22;;;28.50;75.50;;;;;;5036004;28;20518;-77
2022/06/06 01:28:47;;;;;;;11.90;6.20;;;28.50;75.80;;;;;;5035933;28;20050;-77
2022/06/06 01:31:36;;;;;;;14.35;5.78;;;28.50;76.10;;;;;;5036426;28;20084;-77
2022/06/06 01:34:07;;;;;;;15.50;6.07;;;28.50;76.70;;;;;;5067486;28;20045;-77
2022/06/06 01:36:36;;;;;;;14.15;6.28;;;28.40;77.20;;;;;;5035841;28;20103;-77
2022/06/06 01:39:09;;;;;;;12.68;5.50;;;28.30;78.30;;;;;;5052821;28;20174;-77
2022/06/06 01:42:06;;;;;;;10.57;5.10;;;28.30;79.00;;;;;;5052718;28;20056;-77
2022/06/06 01:44:57;;;;;;;11.18;5.10;;;28.30;78.40;;;;;;5035773;28;20048;-77
2022/06/06 01:47:34;;;;;;;8.98;4.82;;;28.30;78.30;;;;;;5052565;28;20063;-77
2022/06/06 01:50:04;;;;;;;12.93;5.38;;;28.30;78.30;;;;;;5052013;28;20072;-77
2022/06/06 01:52:49;;;;;;;12.60;5.30;;;28.40;78.20;;;;;;5050785;28;20036;-77
2022/06/06 01:55:17;;;;;;;12.52;5.55;;;28.40;77.70;;;;;;5052687;28;20431;-77
2022/06/06 01:57:46;;;;;;;11.30;5.63;;;28.40;78.20;;;;;;5052185;28;20505;-77
2022/06/06 02:00:15;;;;;;;9.27;5.10;;;28.50;78.60;;;;;;5068765;28;20045;-77
2022/06/06 02:02:43;;;;;;;13.52;5.05;;;28.50;78.90;;;;;;5068746;28;20044;-77
2022/06/06 02:05:13;;;;;;;11.10;5.60;;;28.50;79.60;;;;;;5069903;28;20608;-77
2022/06/06 02:07:42;;;;;;;14.02;6.47;;;28.40;79.60;;;;;;5051365;28;20048;-77
2022/06/06 02:10:14;;;;;;;14.25;5.32;;;28.40;79.60;;;;;;5035163;28;20051;-77
2022/06/06 02:12:41;;;;;;;13.95;5.75;;;28.40;79.70;;;;;;5070062;28;20052;-77
2022/06/06 02:15:12;;;;;;;18.10;5.20;;;28.40;80.00;;;;;;5052219;28;20056;-76
2022/06/06 02:17:39;;;;;;;9.73;4.68;;;28.30;80.50;;;;;;5052439;28;20138;-77
2022/06/06 02:20:11;;;;;;;16.02;5.60;;;28.30;81.30;;;;;;5035027;28;20121;-77
2022/06/06 02:22:39;;;;;;;12.48;5.82;;;28.30;82.20;;;;;;5068119;28;20041;-77
2022/06/06 02:25:07;;;;;;;12.57;5.88;;;28.30;83.00;;;;;;5069444;28;20055;-77
2022/06/06 02:27:36;;;;;;;14.90;4.78;;;28.30;84.20;;;;;;5035399;28;20047;-77
2022/06/06 02:30:07;;;;;;;8.88;4.82;;;28.30;84.50;;;;;;5051483;28;20147;-77
2022/06/06 02:32:34;;;;;;;10.43;4.90;;;28.20;84.40;;;;;;5072169;28;20049;-77
2022/06/06 02:35:02;;;;;;;13.60;4.55;;;28.20;84.40;;;;;;5055993;28;20052;-77
2022/06/06 02:37:29;;;;;;;11.95;5.07;;;28.20;84.50;;;;;;5072047;28;20055;-77
2022/06/06 02:39:57;;;;;;;11.95;5.00;;;28.10;84.70;;;;;;5073184;28;20068;-77
2022/06/06 02:42:24;;;;;;;14.95;4.97;;;28.10;84.70;;;;;;5055050;28;20047;-77
2022/06/06 02:44:52;;;;;;;9.10;3.70;;;28.00;84.90;;;;;;5055740;28;20044;-77
2022/06/06 02:47:20;;;;;;;10.82;5.10;;;27.90;85.10;;;;;;5071562;28;20135;-78
2022/06/06 02:49:47;;;;;;;13.20;4.10;;;27.80;85.30;;;;;;5071793;28;20051;-77
2022/06/06 02:52:15;;;;;;;8.75;3.30;;;27.80;85.40;;;;;;5055236;28;20049;-77
2022/06/06 02:54:43;;;;;;;14.38;4.07;;;27.80;85.70;;;;;;5055189;28;20104;-77
2022/06/06 02:57:10;;;;;;;11.55;3.72;;;27.70;85.90;;;;;;5071585;28;20422;-77
2022/06/06 02:59:40;;;;;;;9.85;4.32;;;27.80;86.10;;;;;;5038888;28;20048;-77
2022/06/06 03:02:09;;;;;;;15.65;4.53;;;27.60;86.30;;;;;;5049154;28;20072;-77
2022/06/06 03:04:38;;;;;;;7.93;3.83;;;27.50;86.70;;;;;;5034436;28;20624;-77
2022/06/06 03:07:06;;;;;;;8.98;3.42;;;27.40;87.10;;;;;;5068134;28;20106;-77
2022/06/06 03:10:08;;;;;;;10.38;3.88;;;27.20;87.50;;;;;;5038414;28;20044;-77
2022/06/06 03:12:51;;;;;;;11.13;3.95;;;27.00;87.90;;;;;;5071139;28;20418;-77
2022/06/06 03:15:28;;;;;;;15.45;4.22;;;26.90;88.50;;;;;;5071943;28;20056;-76
2022/06/06 03:21:19;;;;;;;8.13;4.03;;;26.90;88.80;;;;;;5071038;28;20060;-77
2022/06/06 03:24:26;;;;;;;9.82;4.18;;;26.60;89.40;;;;;;5054927;28;20442;-77
2022/06/06 03:27:25;;;;;;;10.20;4.32;;;26.60;89.80;;;;;;5062632;28;20080;-77
2022/06/06 03:30:07;;;;;;;13.85;4.65;;;26.60;89.70;;;;;;5072062;28;20493;-76
2022/06/06 03:32:47;;;;;;;12.70;4.70;;;26.70;89.50;;;;;;5037720;28;20472;-76
2022/06/06 03:35:20;;;;;;;7.88;3.40;;;26.60;89.20;;;;;;5071351;28;20037;-77
2022/06/06 03:37:59;;;;;;;13.88;4.22;;;26.60;88.50;;;;;;5071427;28;20048;-78
2022/06/06 03:40:51;;;;;;;8.48;3.50;;;26.70;88.20;;;;;;5054759;28;20053;-76
2022/06/06 03:43:41;;;;;;;9.52;3.67;;;26.70;88.30;;;;;;5053331;28;20458;-78
2022/06/06 03:46:21;;;;;;;7.72;3.38;;;26.70;88.30;;;;;;5037866;28;20114;-77
2022/06/06 03:49:01;;;;;;;12.50;3.60;;;26.80;87.90;;;;;;5054239;28;20067;-77
2022/06/06 03:51:40;;;;;;;6.63;3.35;;;26.90;87.20;;;;;;5037689;28;20049;-76
2022/06/06 03:54:42;;;;;;;7.53;3.88;;;26.90;86.70;;;;;;5054086;28;20040;-76
2022/06/06 03:57:17;;;;;;;6.90;3.63;;;27.10;86.20;;;;;;5028539;28;20052;-77
2022/06/06 03:59:53;;;;;;;7.82;3.85;;;27.20;85.80;;;;;;5033864;28;20053;-77
2022/06/06 04:02:28;;;;;;;8.52;3.40;;;27.20;86.20;;;;;;5016740;28;20053;-76
2022/06/06 04:04:59;;;;;;;;;;;27.10;86.70;;;;;;5033530;28;20102;-76
2022/06/06 04:07:27;;;;;;;8.10;3.03;;;27.00;87.40;;;;;;5034442;28;19928;-77
2022/06/06 04:09:54;;;;;;;9.60;3.58;;;27.00;87.50;;;;;;5050163;28;20049;-77
2022/06/06 04:12:44;;;;;;;6.13;2.88;;;27.10;87.40;;;;;;5049954;28;20140;-78
2022/06/06 04:15:32;;;;;;;7.60;3.60;;;27.10;86.90;;;;;;5050160;28;20159;-76
2022/06/06 04:18:22;;;;;;;12.07;3.90;;;27.20;86.80;;;;;;5050548;28;20055;-75
2022/06/06 04:20:58;;;;;;;11.98;5.25;;;27.40;86.80;;;;;;5033491;28;20049;-77
2022/06/06 04:23:45;;;;;;;6.97;3.13;;;27.50;86.50;;;;;;5050664;28;20049;-78
2022/06/06 04:26:27;;;;;;;11.73;4.03;;;27.60;86.30;;;;;;5033591;28;20053;-76
2022/06/06 04:28:55;;;;;;;13.20;4.18;;;27.60;85.70;;;;;;5050032;28;20095;-75
2022/06/06 04:31:25;;;;;;;10.90;4.20;;;27.80;84.90;;;;;;5033418;28;20041;-76
2022/06/06 04:33:58;;;;;;;8.57;3.42;;;27.90;84.40;;;;;;5033871;28;20056;-76
2022/06/06 04:36:35;;;;;;;6.05;2.88;;;28.10;84.20;;;;;;5049731;28;20041;-76
2022/06/06 04:39:10;;;;;;;9.40;3.15;;;28.00;83.90;;;;;;5050116;28;20072;-76
2022/06/06 04:41:48;;;;;;;10.05;4.57;;;28.20;84.00;;;;;;5049949;28;20104;-77
2022/06/06 04:44:37;;;;;;;15.05;5.70;;;28.20;84.00;;;;;;5050674;28;20044;-77
2022/06/06 04:47:26;;;;;;;10.18;3.92;;;28.40;83.80;;;;;;5033282;28;20037;-77
2022/06/06 04:49:56;;;;;;;10.23;3.60;;;28.60;83.30;;;;;;5033428;28;20127;-76
2022/06/06 04:52:25;;;;;;;9.43;3.83;;;28.70;82.80;;;;;;5032922;28;20045;-76
2022/06/06 04:54:54;;;;;;;12.88;3.45;;;28.70;82.60;;;;;;5031792;28;20129;-76
2022/06/06 04:57:23;;;;;;;10.63;4.28;;;28.70;82.90;;;;;;5032686;28;20053;-77
2022/06/06 04:59:52;;;;;;;10.07;3.70;;;28.60;83.90;;;;;;5049601;28;20071;-76
2022/06/06 05:02:21;;;;;;;8.85;4.03;;;28.70;84.20;;;;;;5049007;28;20390;-76
2022/06/06 05:04:49;;;;;;;14.75;4.10;;;28.90;84.40;;;;;;5033071;28;20056;-76
2022/06/06 05:07:29;;;;;;;12.90;4.20;;;29.00;84.30;;;;;;5049473;28;20045;-77
2022/06/06 05:10:04;;;;;;;10.85;5.05;;;29.10;84.00;;;;;;5032976;28;20048;-76
2022/06/06 05:13:01;;;;;;;6.82;3.63;;;29.20;83.50;;;;;;5048743;28;20098;-76
2022/06/06 05:16:11;;;;;;;8.27;3.10;;;29.30;83.10;;;;;;5041752;28;20045;-76
2022/06/06 05:19:07;;;;;;;15.05;3.78;;;29.50;82.60;;;;;;5032271;28;20048;-76
2022/06/06 05:21:41;;;;;;;19.20;5.35;;;29.70;82.40;;;;;;5032749;28;20048;-78
2022/06/06 05:24:11;;;;;;;11.82;3.88;;;29.60;82.00;;;;;;5032144;28;20053;-77
2022/06/06 05:26:45;;;;;;;8.32;3.63;;;29.60;81.70;;;;;;5048823;28;20057;-77
2022/06/06 05:29:43;;;;;;;12.93;4.45;;;29.50;81.70;;;;;;5049251;28;20048;-77
2022/06/06 05:32:35;;;;;;;12.10;3.28;;;29.60;81.80;;;;;;5032446;28;20060;-78
2022/06/06 05:35:22;;;;;;;7.72;2.95;;;29.50;81.20;;;;;;5048944;28;20037;-77
2022/06/06 05:38:35;;;;;;;13.93;3.55;;;29.60;81.10;;;;;;5064250;28;20055;-77
2022/06/06 05:41:08;;;;;;;10.10;3.72;;;29.70;80.70;;;;;;5035809;28;20517;-77
2022/06/06 05:43:42;;;;;;;12.90;3.58;;;29.70;80.40;;;;;;5069222;28;20047;-77
2022/06/06 05:46:31;;;;;;;9.13;3.22;;;30.00;80.50;;;;;;5052680;28;20036;-77
2022/06/06 05:49:11;;;;;;;10.13;3.15;;;30.30;80.30;;;;;;5069399;28;20045;-79
2022/06/06 05:52:07;;;;;;;8.65;3.33;;;30.40;79.40;;;;;;5051856;28;20048;-77
2022/06/06 05:55:19;;;;;;;7.45;3.55;;;30.60;79.10;;;;;;5035494;28;20139;-77
2022/06/06 05:58:08;;;;;;;15.68;3.80;;;31.00;78.60;;;;;;5051190;28;20044;-77
2022/06/06 06:00:44;;;;;;;8.45;3.55;;;31.30;77.90;;;;;;5052164;28;20044;-77
2022/06/06 06:03:25;;;;;;;10.02;3.95;;;31.20;77.70;;;;;;5070063;28;20040;-77
2022/06/06 06:06:05;;;;;;;13.35;3.63;;;31.30;77.80;;;;;;5035368;28;20523;-77
2022/06/06 06:08:39;;;;;;;14.15;3.70;;;31.50;78.00;;;;;;5073417;28;20041;-77
2022/06/06 06:11:39;;;;;;;12.35;4.18;;;31.60;77.80;;;;;;5055665;28;20040;-78
2022/06/06 06:14:30;;;;;;;13.30;4.18;;;31.60;77.70;;;;;;5072157;28;20403;-78
2022/06/06 06:17:00;;;;;;;12.05;3.90;;;31.80;77.90;;;;;;5061925;28;20063;-77
2022/06/06 06:20:01;;;;;;;15.65;3.78;;;31.90;77.90;;;;;;5072701;28;20044;-77
2022/06/06 06:23:04;;;;;;;16.05;3.95;;;32.00;77.40;;;;;;5055327;28;20044;-77
2022/06/06 06:25:39;;;;;;;18.48;4.30;;;32.20;78.10;;;;;;5068351;28;20963;-78
2022/06/06 06:28:10;;;;;;;12.60;4.03;;;32.50;77.60;;;;;;5056119;28;20049;-78
2022/06/06 06:30:46;;;;;;;10.65;3.15;;;32.70;77.20;;;;;;5072152;28;20044;-79
2022/06/06 06:33:47;;;;;;;11.70;4.07;;;32.90;76.90;;;;;;5053293;28;20044;-78
2022/06/06 06:36:23;;;;;;;9.57;3.58;;;33.10;75.50;;;;;;5039394;28;20052;-77
2022/06/06 06:39:00;;;;;;;14.38;4.30;;;33.30;75.50;;;;;;5055523;28;20086;-77
2022/06/06 06:42:00;;;;;;;11.73;3.33;;;33.50;74.70;;;;;;5072213;28;20045;-77
2022/06/06 06:44:46;;;;;;;13.90;4.25;;;33.70;75.20;;;;;;5055754;28;20509;-78
2022/06/06 06:47:29;;;;;;;15.47;3.40;;;33.90;73.60;;;;;;5038850;28;20497;-77
2022/06/06 06:50:28;;;;;;;7.78;2.97;;;34.00;73.00;;;;;;5071968;28;20366;-78
2022/06/06 06:53:34;;;;;;;13.07;4.60;;;34.20;73.60;;;;;;5071859;28;20532;-78
2022/06/06 06:56:40;;;;;;;9.30;3.20;;;34.30;72.30;;;;;;5038508;28;20671;-78
2022/06/06 06:59:23;;;;;;;;;;;34.20;71.70;;;;;;5055459;28;20142;-78
2022/06/06 07:11:24;;;;;;;12.20;4.13;;;34.20;74.00;;;;;;5071225;28;20048;-78
2022/06/06 07:14:02;;;;;;;8.15;3.13;;;34.20;74.50;;;;;;5054782;28;20045;-78
2022/06/06 07:16:40;;;;;;;11.45;4.47;;;34.10;74.50;;;;;;5071448;28;20066;-78
2022/06/06 07:19:28;;;;;;;12.00;4.18;;;34.10;73.80;;;;;;5053780;28;20437;-78
2022/06/06 07:21:58;;;;;;;11.10;4.95;;;34.20;74.00;;;;;;5069988;28;20526;-77
2022/06/06 07:24:28;;;;;;;8.43;4.75;;;34.30;74.00;;;;;;5035506;28;20044;-78
2022/06/06 07:26:59;;;;;;;13.23;4.28;;;34.30;72.90;;;;;;5052913;28;20052;-77
2022/06/06 07:29:26;;;;;;;14.02;4.53;;;34.30;73.00;;;;;;5051173;28;20060;-78
2022/06/06 07:32:22;;;;;;;12.90;4.20;;;34.50;73.30;;;;;;5017863;28;20049;-78
2022/06/06 07:35:11;;;;;;;16.92;5.05;;;34.60;72.50;;;;;;5052090;28;20045;-78
2022/06/06 07:38:01;;;;;;;16.83;4.60;;;34.70;72.40;;;;;;5051029;28;20033;-78
2022/06/06 07:40:47;;;;;;;10.77;3.85;;;35.00;72.50;;;;;;5050861;28;20494;-79
2022/06/06 07:43:19;;;;;;;10.32;3.95;;;35.20;72.40;;;;;;5034553;28;20091;-80
2022/06/06 07:45:50;;;;;;;10.15;4.85;;;35.40;71.70;;;;;;5034491;28;20348;-79
2022/06/06 07:48:45;;;;;;;12.63;4.30;;;35.30;71.00;;;;;;5051087;28;20045;-80
2022/06/06 07:51:20;;;;;;;15.02;4.25;;;35.30;70.60;;;;;;5035241;28;20041;-80
2022/06/06 07:54:01;;;;;;;11.75;3.75;;;35.50;71.10;;;;;;5051261;28;20045;-77
2022/06/06 07:57:06;;;;;;;9.48;4.18;;;35.60;70.90;;;;;;5050789;28;20041;-77
2022/06/06 07:59:48;;;;;;;8.40;3.50;;;35.70;70.20;;;;;;5034092;28;20130;-78
2022/06/06 08:02:34;;;;;;;15.40;3.95;;;35.70;70.70;;;;;;5051632;28;20053;-80
2022/06/06 08:05:25;;;;;;;10.15;3.80;;;35.80;69.70;;;;;;5017366;28;20586;-79
2022/06/06 08:08:11;;;;;;;12.77;5.45;;;36.00;69.50;;;;;;5033598;28;20094;-79
2022/06/06 08:10:45;;;;;;;9.38;4.32;;;36.00;69.50;;;;;;5034161;28;20049;-79
2022/06/06 08:13:28;;;;;;;12.25;4.15;;;36.10;68.50;;;;;;5036623;28;20049;-79
2022/06/06 08:16:20;;;;;;;11.30;4.47;;;36.00;67.20;;;;;;5033873;28;20067;-79
2022/06/06 08:18:53;;;;;;;13.82;5.07;;;36.10;67.50;;;;;;5051681;28;20041;-78
2022/06/06 08:21:33;;;;;;;16.50;4.90;;;35.90;66.60;;;;;;5050677;28;20045;-78
2022/06/06 08:24:03;;;;;;;9.10;3.78;;;35.80;66.40;;;;;;5033398;28;20052;-79
2022/06/06 08:26:42;;;;;;;13.60;4.07;;;35.90;67.30;;;;;;5034531;28;20045;-78
2022/06/06 08:29:10;;;;;;;10.25;3.65;;;36.10;67.70;;;;;;5050125;28;20397;-78
2022/06/06 08:31:38;;;;;;;11.63;4.35;;;36.20;66.80;;;;;;5033611;28;20134;-78
2022/06/06 08:34:05;;;;;;;12.55;4.60;;;36.20;65.50;;;;;;5050479;28;20171;-78
2022/06/06 08:37:07;;;;;;;12.70;3.95;;;36.00;65.20;;;;;;5049999;28;20140;-78
2022/06/06 08:40:04;;;;;;;19.73;4.40;;;36.20;65.90;;;;;;5051114;28;20045;-78
2022/06/06 08:42:38;;;;;;;12.90;3.80;;;36.20;65.50;;;;;;5033133;28;20045;-78
2022/06/06 08:45:08;;;;;;;12.20;4.25;;;35.90;65.20;;;;;;5033283;28;20049;-78
2022/06/06 08:47:39;;;;;;;16.40;4.43;;;36.10;65.90;;;;;;5051130;28;20041;-80
2022/06/06 08:53:49;;;;;;;16.27;4.38;;;36.30;64.30;;;;;;5050911;28;20816;-79
2022/06/06 08:56:22;;;;;;;12.98;3.70;;;36.30;64.10;;;;;;5050994;28;20426;-79
2022/06/06 08:59:12;;;;;;;18.65;4.32;;;36.50;63.90;;;;;;5049615;28;20161;-79
2022/06/06 09:02:07;;;;;;;9.73;4.38;;;36.60;63.50;;;;;;5033086;28;20041;-79
2022/06/06 09:04:53;;;;;;;8.73;3.55;;;36.60;64.30;;;;;;5049527;28;20041;-79
2022/06/06 09:07:34;;;;;;;9.25;4.25;;;36.80;63.90;;;;;;5033323;28;20063;-78
2022/06/06 09:10:29;;;;;;;10.57;3.67;;;36.80;62.50;;;;;;5049508;28;20053;-79
2022/06/06 09:13:18;;;;;;;16.35;3.97;;;36.70;62.80;;;;;;5033342;28;20144;-80
2022/06/06 09:15:46;;;;;;;16.13;4.20;;;36.70;62.90;;;;;;5068030;28;20047;-80
2022/06/06 09:18:35;;;;;;;13.73;4.30;;;36.60;62.80;;;;;;5070229;28;20059;-80
2022/06/06 09:21:30;;;;;;;12.73;4.43;;;36.70;62.40;;;;;;5069412;28;20064;-80
2022/06/06 09:24:12;;;;;;;15.18;3.50;;;36.70;62.60;;;;;;5052836;28;20055;-80
2022/06/06 09:26:45;;;;;;;10.65;4.07;;;36.70;62.60;;;;;;5035750;28;20394;-80
2022/06/06 09:29:18;;;;;;;12.18;3.42;;;36.70;62.60;;;;;;5052855;28;20048;-79
2022/06/06 09:32:01;;;;;;;13.52;3.53;;;36.80;62.30;;;;;;5069235;28;20052;-79
2022/06/06 09:34:34;;;;;;;10.60;3.50;;;36.70;62.10;;;;;;5052366;28;20051;-80
2022/06/06 09:37:26;;;;;;;14.60;4.20;;;36.90;62.60;;;;;;5069378;28;20071;-79
2022/06/06 09:39:55;;;;;;;9.98;3.20;;;36.90;62.80;;;;;;5069051;28;20043;-79
2022/06/06 09:42:49;;;;;;;8.68;3.10;;;37.00;62.60;;;;;;5051715;28;20167;-80
2022/06/06 09:45:27;;;;;;;11.63;3.35;;;37.00;61.60;;;;;;5069046;28;20410;-80
2022/06/06 09:48:33;;;;;;;8.45;3.88;;;36.80;61.90;;;;;;5069211;28;20487;-81
2022/06/06 09:51:48;;;;;;;9.45;3.33;;;36.80;61.50;;;;;;5070193;28;20082;-78
2022/06/06 10:01:28;;;;;;;13.25;4.70;;;36.80;61.40;;;;;;5069829;28;20048;-79
2022/06/06 10:04:33;;;;;;;8.30;3.83;;;36.90;61.60;;;;;;5060690;28;20055;-78
2022/06/06 10:07:07;;;;;;;8.65;3.97;;;36.70;61.00;;;;;;5049854;28;20041;-80
2022/06/06 10:10:00;;;;;;;10.75;4.75;;;36.90;62.20;;;;;;5032094;28;20503;-78
2022/06/06 10:13:03;;;;;;;10.13;3.58;;;36.40;61.40;;;;;;5031732;28;20060;-78
2022/06/06 10:16:01;;;;;;;14.23;3.67;;;36.40;62.00;;;;;;5050022;28;20041;-78
2022/06/06 10:18:45;;;;;;;11.50;4.07;;;36.50;62.20;;;;;;5048889;28;20045;-78
2022/06/06 10:21:25;;;;;;;12.32;3.40;;;36.70;62.70;;;;;;5032380;28;20057;-77
2022/06/06 10:24:04;;;;;;;13.75;4.05;;;36.80;62.10;;;;;;5032352;28;20064;-78
2022/06/06 10:26:57;;;;;;;10.65;3.90;;;37.00;62.30;;;;;;5049700;28;20403;-81
2022/06/06 10:32:28;;;;;;;11.05;4.15;;;36.80;68.20;;;;;;5031782;28;20499;-80
2022/06/06 10:35:06;;;;;;;12.07;4.57;;;36.70;69.20;;;;;;5031868;28;20052;-79
2022/06/06 10:37:34;;;;;;;14.38;5.00;;;36.50;69.20;;;;;;5048500;28;20045;-80
2022/06/06 10:40:24;;;;;;;13.45;4.18;;;36.50;69.40;;;;;;5048805;28;20099;-79
2022/06/06 10:43:14;;;;;;;12.52;4.20;;;36.40;69.20;;;;;;5031638;28;20048;-79
2022/06/06 10:45:44;;;;;;;10.75;4.47;;;36.30;69.90;;;;;;5049745;28;20438;-82
2022/06/06 10:48:37;;;;;;;14.38;4.03;;;36.20;70.20;;;;;;5031942;28;20564;-81
2022/06/06 10:51:40;;;;;;;15.18;4.55;;;36.10;70.00;;;;;;5032152;28;20041;-80
2022/06/06 10:54:17;;;;;;;13.52;4.53;;;36.10;70.20;;;;;;5017613;28;20106;-80
2022/06/06 10:57:36;;;;;;;14.20;4.55;;;35.80;70.10;;;;;;5054843;28;20037;-81
2022/06/06 11:00:42;;;;;;;8.45;4.07;;;35.70;69.70;;;;;;5049777;28;20075;-80
2022/06/06 11:03:28;;;;;;;16.77;5.15;;;35.60;69.20;;;;;;5033152;28;20048;-80
2022/06/06 11:06:26;;;;;;;12.65;4.65;;;35.70;68.90;;;;;;5068092;28;20654;-82
2022/06/06 11:09:18;;;;;;;10.82;3.67;;;35.70;68.70;;;;;;5069835;28;20568;-81
2022/06/06 11:12:05;;;;;;;10.65;4.50;;;35.90;68.60;;;;;;5050514;28;20063;-81
2022/06/06 11:14:39;;;;;;;11.80;4.68;;;35.80;67.20;;;;;;5049618;28;20049;-81
2022/06/06 11:17:19;;;;;;;13.18;5.00;;;35.80;66.90;;;;;;5017929;28;20056;-81
2022/06/06 11:19:56;;;;;;;14.13;4.70;;;35.80;66.70;;;;;;5033373;28;20151;-80
2022/06/06 11:22:42;;;;;;;10.82;3.10;;;35.80;67.00;;;;;;5050026;28;20064;-80
2022/06/06 11:25:20;;;;;;;10.70;4.13;;;35.80;67.30;;;;;;5033624;28;20100;-80
2022/06/06 11:28:24;;;;;;;10.18;4.50;;;35.90;67.40;;;;;;5038414;28;20065;-80
2022/06/06 11:31:32;;;;;;;9.52;4.20;;;35.80;67.40;;;;;;5051572;28;20076;-81
2022/06/06 11:34:37;;;;;;;10.80;4.53;;;35.80;67.40;;;;;;5051036;28;20037;-80
2022/06/06 11:37:35;;;;;;;17.30;4.60;;;35.60;66.80;;;;;;5051015;28;20058;-81
2022/06/06 11:40:40;;;;;;;13.52;5.10;;;35.60;67.40;;;;;;5051192;28;20053;-81
2022/06/06 11:43:35;;;;;;;13.90;4.20;;;35.60;67.10;;;;;;5052096;28;20076;-79
2022/06/06 11:46:36;;;;;;;15.45;3.97;;;35.80;66.90;;;;;;5051137;28;20072;-81
2022/06/06 11:49:13;;;;;;;13.85;3.65;;;35.60;67.10;;;;;;5048333;28;20511;-79
2022/06/06 11:51:42;;;;;;;14.35;3.60;;;35.50;67.60;;;;;;5050924;28;20049;-80
2022/06/06 11:54:28;;;;;;;13.63;4.63;;;35.40;67.40;;;;;;5049688;28;20049;-80
2022/06/06 11:57:18;;;;;;;11.30;4.18;;;35.40;67.70;;;;;;5051476;28;20102;-80
2022/06/06 11:59:49;;;;;;;9.52;3.88;;;35.40;67.20;;;;;;5034275;28;20091;-81
2022/06/06 12:02:35;;;;;;;9.98;4.18;;;35.30;67.20;;;;;;5033847;28;20057;-80
2022/06/06 12:05:24;;;;;;;11.43;3.97;;;35.30;67.60;;;;;;5033031;28;20051;-80
2022/06/06 12:08:10;;;;;;;13.02;3.88;;;35.30;67.40;;;;;;5018016;28;20060;-80
2022/06/06 12:11:10;;;;;;;12.25;3.78;;;35.30;67.00;;;;;;5050041;28;20045;-81
2022/06/06 12:13:53;;;;;;;11.15;4.05;;;35.30;67.10;;;;;;5033457;28;20045;-80
2022/06/06 12:16:51;;;;;;;8.90;4.50;;;35.40;66.80;;;;;;5050386;28;20040;-81
2022/06/06 12:20:16;;;;;;;12.02;4.30;;;35.40;67.00;;;;;;5033189;28;20045;-81
2022/06/06 12:22:51;;;;;;;11.23;4.35;;;35.50;66.90;;;;;;5052534;28;20060;-79
2022/06/06 12:25:36;;;;;;;11.50;4.20;;;35.60;66.80;;;;;;5053613;28;20047;-80
2022/06/06 12:28:47;;;;;;;10.60;3.90;;;35.70;66.50;;;;;;5017260;28;20049;-79
2022/06/06 12:31:38;;;;;;;14.52;3.90;;;35.70;65.80;;;;;;5051236;28;20055;-79
2022/06/06 12:34:24;;;;;;;12.95;3.95;;;35.70;66.40;;;;;;5032945;28;20060;-81
2022/06/06 12:36:56;;;;;;;11.75;3.47;;;35.70;66.00;;;;;;5049391;28;20778;-81
2022/06/06 12:39:30;;;;;;;11.10;3.75;;;35.70;66.40;;;;;;5020939;28;20177;-80
2022/06/06 12:42:09;;;;;;;8.52;4.47;;;35.70;66.10;;;;;;5049823;28;20059;-81
2022/06/06 12:45:18;;;;;;;9.10;3.20;;;35.60;65.80;;;;;;5031898;28;20403;-81
2022/06/06 12:48:06;;;;;;;9.50;3.95;;;35.50;65.70;;;;;;5032520;28;20041;-81
2022/06/06 12:50:34;;;;;;;18.83;4.97;;;35.50;65.90;;;;;;5049401;28;20048;-80
2022/06/06 12:53:25;;;;;;;9.70;3.35;;;35.50;66.20;;;;;;5016050;28;20094;-81
2022/06/06 12:56:20;;;;;;;6.50;3.95;;;35.50;66.20;;;;;;5049022;28;20385;-81
2022/06/06 12:59:19;;;;;;;8.32;3.50;;;35.50;66.30;;;;;;5050568;28;20128;-80
2022/06/06 13:02:08;;;;;;;11.38;3.90;;;35.40;67.20;;;;;;5033222;28;20846;-80
2022/06/06 13:04:44;;;;;;;13.18;4.07;;;35.40;67.30;;;;;;5048814;28;20053;-81
2022/06/06 13:07:43;;;;;;;14.15;3.70;;;35.50;68.50;;;;;;5049657;28;20041;-81
2022/06/06 13:10:23;;;;;;;11.95;3.58;;;35.50;68.90;;;;;;5016027;28;20057;-81
2022/06/06 13:13:20;;;;;;;11.93;3.30;;;35.50;68.20;;;;;;5031950;28;20056;-80
2022/06/06 13:15:55;;;;;;;11.57;3.20;;;35.50;69.00;;;;;;5045711;28;20053;-80
2022/06/06 13:18:30;;;;;;;8.15;3.53;;;35.40;69.40;;;;;;5015686;28;20053;-80
2022/06/06 13:21:30;;;;;;;14.20;4.53;;;35.30;67.80;;;;;;5048755;28;20045;-79
2022/06/06 13:24:35;;;;;;;9.35;3.83;;;35.30;66.30;;;;;;5048203;28;20045;-80
2022/06/06 13:27:32;;;;;;;11.80;3.63;;;35.30;64.80;;;;;;5048759;28;20044;-80
2022/06/06 13:30:22;;;;;;;10.13;4.03;;;35.40;66.50;;;;;;5031465;28;20384;-80
2022/06/06 13:33:42;;;;;;;12.55;4.13;;;35.40;66.40;;;;;;5050077;28;20302;-81
2022/06/06 13:36:32;;;;;;;6.38;3.50;;;35.40;65.80;;;;;;5015281;28;20114;-80
2022/06/06 13:39:06;;;;;;;10.65;3.83;;;35.40;68.00;;;;;;5031594;28;20132;-80
2022/06/06 13:41:47;;;;;;;13.05;4.35;;;35.30;68.70;;;;;;5030332;28;20789;-79
2022/06/06 13:44:34;;;;;;;10.93;4.28;;;35.30;68.80;;;;;;5048657;28;20450;-80
2022/06/06 13:47:17;;;;;;;14.65;4.35;;;35.20;69.00;;;;;;5032778;28;20040;-79
2022/06/06 13:49:56;;;;;;;11.93;3.75;;;35.10;69.70;;;;;;5048971;28;20492;-80
2022/06/06 13:52:55;;;;;;;9.77;4.00;;;35.00;68.30;;;;;;5048402;28;20055;-81
2022/06/06 13:55:33;;;;;;;13.82;5.30;;;35.00;71.00;;;;;;5048781;28;20033;-80
2022/06/06 13:58:29;;;;;;;10.45;5.57;;;34.90;70.40;;;;;;5049134;28;20367;-80
2022/06/06 14:01:26;;;;;;;13.20;5.07;;;34.80;71.50;;;;;;5032791;28;20049;-80
2022/06/06 14:04:12;;;;;;;17.52;8.90;;;34.70;70.50;;;;;;5016449;28;20053;-80
2022/06/06 14:07:13;;;;;;;21.23;15.23;;;34.70;70.60;;;;;;5032698;28;20059;-80
2022/06/06 14:09:44;;;;;;;27.35;16.45;;;34.50;70.40;;;;;;5031514;28;20053;-80
2022/06/06 14:12:34;;;;;;;24.20;17.35;;;34.60;71.20;;;;;;5031487;28;20049;-80
2022/06/06 14:15:09;;;;;;;23.95;17.65;;;34.70;71.70;;;;;;5048667;28;20090;-80
2022/06/06 14:17:41;;;;;;;23.25;17.15;;;34.50;72.60;;;;;;5049047;28;20076;-80
2022/06/06 14:20:18;;;;;;;22.77;14.68;;;34.50;73.50;;;;;;5032274;28;20572;-79
2022/06/06 14:22:47;;;;;;;21.13;14.07;;;34.60;73.70;;;;;;5049885;28;20041;-80
2022/06/06 14:25:16;;;;;;;24.92;14.52;;;34.50;72.30;;;;;;5052056;28;20049;-80
2022/06/06 14:27:45;;;;;;;20.83;12.23;;;34.40;73.10;;;;;;5069926;28;20048;-80